sensor_id;sensor_type;location;lat;lon;timestamp;temperature;humidity
28773;DHT22;15925;51.222;5.678;2023-04-03T00:01:38;3.80;99.90
28773;DHT22;15925;51.222;5.678;2023-04-03T00:04:05;3.80;99.90
28773;DHT22;15925;51.222;5.678;2023-04-03T00:06:30;3.80;99.90
28773;DHT22;15925;51.222;5.678;2023-04-03T00:08:56;3.70;99.90
28773;DHT22;15925;51.222;5.678;2023-04-03T00:11:22;3.70;99.90
28773;DHT22;15925;51.222;5.678;2023-04-03T00:13:48;3.70;99.90
28773;DHT22;15925;51.222;5.678;2023-04-03T00:16:14;3.60;99.90
28773;DHT22;15925;51.222;5.678;2023-04-03T00:18:40;3.60;99.90
28773;DHT22;15925;51.222;5.678;2023-04-03T00:21:07;3.60;99.90
28773;DHT22;15925;51.222;5.678;2023-04-03T00:23:34;3.60;99.90
28773;DHT22;15925;51.222;5.678;2023-04-03T00:26:00;3.60;99.90
28773;DHT22;15925;51.222;5.678;2023-04-03T00:28:25;3.60;99.90
28773;DHT22;15925;51.222;5.678;2023-04-03T00:30:52;3.60;99.90
28773;DHT22;15925;51.222;5.678;2023-04-03T00:33:19;3.60;99.90
28773;DHT22;15925;51.222;5.678;2023-04-03T00:35:47;3.50;99.90
28773;DHT22;15925;51.222;5.678;2023-04-03T00:38:14;3.50;99.90
28773;DHT22;15925;51.222;5.678;2023-04-03T00:40:43;3.50;99.90
28773;DHT22;15925;51.222;5.678;2023-04-03T00:43:17;3.50;99.90
28773;DHT22;15925;51.222;5.678;2023-04-03T00:45:46;3.40;99.90
28773;DHT22;15925;51.222;5.678;2023-04-03T00:48:17;3.40;99.90
28773;DHT22;15925;51.222;5.678;2023-04-03T00:50:44;3.40;99.90
28773;DHT22;15925;51.222;5.678;2023-04-03T00:53:25;3.40;99.90
28773;DHT22;15925;51.222;5.678;2023-04-03T00:55:54;3.30;99.90
28773;DHT22;15925;51.222;5.678;2023-04-03T00:58:31;3.30;99.90
28773;DHT22;15925;51.222;5.678;2023-04-03T01:00:58;3.40;99.90
28773;DHT22;15925;51.222;5.678;2023-04-03T01:03:25;3.30;99.90
28773;DHT22;15925;51.222;5.678;2023-04-03T01:05:52;3.40;99.90
28773;DHT22;15925;51.222;5.678;2023-04-03T01:08:18;3.30;99.90
28773;DHT22;15925;51.222;5.678;2023-04-03T01:10:44;3.30;99.90
28773;DHT22;15925;51.222;5.678;2023-04-03T01:13:31;3.30;99.90
28773;DHT22;15925;51.222;5.678;2023-04-03T01:16:01;3.20;99.90
28773;DHT22;15925;51.222;5.678;2023-04-03T01:18:27;3.20;99.90
28773;DHT22;15925;51.222;5.678;2023-04-03T01:26:29;3.20;99.90
28773;DHT22;15925;51.222;5.678;2023-04-03T01:28:55;3.10;99.90
28773;DHT22;15925;51.222;5.678;2023-04-03T01:34:06;3.10;99.90
28773;DHT22;15925;51.222;5.678;2023-04-03T01:36:32;3.10;99.90
28773;DHT22;15925;51.222;5.678;2023-04-03T01:38:59;3.00;99.90
28773;DHT22;15925;51.222;5.678;2023-04-03T01:41:26;3.00;99.90
28773;DHT22;15925;51.222;5.678;2023-04-03T01:43:58;3.00;99.90
28773;DHT22;15925;51.222;5.678;2023-04-03T01:46:24;3.00;99.90
28773;DHT22;15925;51.222;5.678;2023-04-03T01:48:50;3.00;99.90
28773;DHT22;15925;51.222;5.678;2023-04-03T01:51:16;2.90;99.90
28773;DHT22;15925;51.222;5.678;2023-04-03T01:53:42;3.00;99.90
28773;DHT22;15925;51.222;5.678;2023-04-03T01:56:08;2.90;99.90
28773;DHT22;15925;51.222;5.678;2023-04-03T01:58:34;2.90;99.90
28773;DHT22;15925;51.222;5.678;2023-04-03T02:01:00;2.90;99.90
28773;DHT22;15925;51.222;5.678;2023-04-03T02:03:28;2.60;99.90
28773;DHT22;15925;51.222;5.678;2023-04-03T02:05:54;2.50;99.90
28773;DHT22;15925;51.222;5.678;2023-04-03T02:08:20;2.50;99.90
28773;DHT22;15925;51.222;5.678;2023-04-03T02:10:50;2.60;99.90
28773;DHT22;15925;51.222;5.678;2023-04-03T02:13:17;2.60;99.90
28773;DHT22;15925;51.222;5.678;2023-04-03T02:15:44;2.70;99.90
28773;DHT22;15925;51.222;5.678;2023-04-03T02:18:11;2.70;99.90
28773;DHT22;15925;51.222;5.678;2023-04-03T02:20:37;2.70;99.90
28773;DHT22;15925;51.222;5.678;2023-04-03T02:23:04;2.70;99.90
28773;DHT22;15925;51.222;5.678;2023-04-03T02:25:31;2.50;99.90
28773;DHT22;15925;51.222;5.678;2023-04-03T02:27:58;2.40;99.90
28773;DHT22;15925;51.222;5.678;2023-04-03T02:30:24;2.50;99.90
28773;DHT22;15925;51.222;5.678;2023-04-03T02:32:50;2.50;99.90
28773;DHT22;15925;51.222;5.678;2023-04-03T02:35:16;2.60;99.90
28773;DHT22;15925;51.222;5.678;2023-04-03T02:37:42;2.50;99.90
28773;DHT22;15925;51.222;5.678;2023-04-03T02:40:08;2.60;99.90
28773;DHT22;15925;51.222;5.678;2023-04-03T02:42:35;2.50;99.90
28773;DHT22;15925;51.222;5.678;2023-04-03T02:45:02;2.50;99.90
28773;DHT22;15925;51.222;5.678;2023-04-03T02:47:31;2.60;99.90
28773;DHT22;15925;51.222;5.678;2023-04-03T02:49:57;2.40;99.90
28773;DHT22;15925;51.222;5.678;2023-04-03T02:52:23;2.40;99.90
28773;DHT22;15925;51.222;5.678;2023-04-03T02:54:50;2.40;99.90
28773;DHT22;15925;51.222;5.678;2023-04-03T02:57:17;2.50;99.90
28773;DHT22;15925;51.222;5.678;2023-04-03T02:59:42;2.50;99.90
28773;DHT22;15925;51.222;5.678;2023-04-03T03:02:11;2.40;99.90
28773;DHT22;15925;51.222;5.678;2023-04-03T03:04:37;2.50;99.90
28773;DHT22;15925;51.222;5.678;2023-04-03T03:07:03;2.50;99.90
28773;DHT22;15925;51.222;5.678;2023-04-03T03:09:29;2.50;99.90
28773;DHT22;15925;51.222;5.678;2023-04-03T03:11:56;2.40;99.90
28773;DHT22;15925;51.222;5.678;2023-04-03T03:14:22;2.30;99.90
28773;DHT22;15925;51.222;5.678;2023-04-03T03:16:48;2.20;99.90
28773;DHT22;15925;51.222;5.678;2023-04-03T03:19:14;2.00;99.90
28773;DHT22;15925;51.222;5.678;2023-04-03T03:21:40;2.00;99.90
28773;DHT22;15925;51.222;5.678;2023-04-03T03:24:06;2.00;99.90
28773;DHT22;15925;51.222;5.678;2023-04-03T03:26:32;1.90;99.90
28773;DHT22;15925;51.222;5.678;2023-04-03T03:28:58;1.90;99.90
28773;DHT22;15925;51.222;5.678;2023-04-03T03:31:25;1.90;99.90
28773;DHT22;15925;51.222;5.678;2023-04-03T03:33:51;1.80;99.90
28773;DHT22;15925;51.222;5.678;2023-04-03T03:36:18;2.00;99.90
28773;DHT22;15925;51.222;5.678;2023-04-03T03:38:44;1.90;99.90
28773;DHT22;15925;51.222;5.678;2023-04-03T03:41:10;2.00;99.90
28773;DHT22;15925;51.222;5.678;2023-04-03T03:43:36;2.00;99.90
28773;DHT22;15925;51.222;5.678;2023-04-03T03:46:04;2.00;99.90
28773;DHT22;15925;51.222;5.678;2023-04-03T03:48:30;2.00;99.90
28773;DHT22;15925;51.222;5.678;2023-04-03T03:50:56;2.10;99.90
28773;DHT22;15925;51.222;5.678;2023-04-03T03:53:26;2.00;99.90
28773;DHT22;15925;51.222;5.678;2023-04-03T03:55:55;2.10;99.90
28773;DHT22;15925;51.222;5.678;2023-04-03T03:58:24;2.00;99.90
28773;DHT22;15925;51.222;5.678;2023-04-03T04:00:49;2.00;99.90
28773;DHT22;15925;51.222;5.678;2023-04-03T04:03:16;1.90;99.90
28773;DHT22;15925;51.222;5.678;2023-04-03T04:05:44;2.00;99.90
28773;DHT22;15925;51.222;5.678;2023-04-03T04:08:11;2.00;99.90
28773;DHT22;15925;51.222;5.678;2023-04-03T04:10:38;2.00;99.90
28773;DHT22;15925;51.222;5.678;2023-04-03T04:13:05;2.00;99.90
28773;DHT22;15925;51.222;5.678;2023-04-03T04:15:31;2.10;99.90
28773;DHT22;15925;51.222;5.678;2023-04-03T04:17:57;2.00;99.90
28773;DHT22;15925;51.222;5.678;2023-04-03T04:20:24;1.90;99.90
28773;DHT22;15925;51.222;5.678;2023-04-03T04:22:50;2.00;99.90
28773;DHT22;15925;51.222;5.678;2023-04-03T04:25:17;2.00;99.90
28773;DHT22;15925;51.222;5.678;2023-04-03T04:27:43;2.10;99.90
28773;DHT22;15925;51.222;5.678;2023-04-03T04:30:12;2.00;99.90
28773;DHT22;15925;51.222;5.678;2023-04-03T04:32:38;2.00;99.90
28773;DHT22;15925;51.222;5.678;2023-04-03T04:35:04;1.90;99.90
28773;DHT22;15925;51.222;5.678;2023-04-03T04:37:33;1.90;99.90
28773;DHT22;15925;51.222;5.678;2023-04-03T04:40:00;1.90;99.90
28773;DHT22;15925;51.222;5.678;2023-04-03T04:42:25;1.90;99.90
28773;DHT22;15925;51.222;5.678;2023-04-03T04:44:51;1.90;99.90
28773;DHT22;15925;51.222;5.678;2023-04-03T04:47:18;1.90;99.90
28773;DHT22;15925;51.222;5.678;2023-04-03T04:49:43;2.00;99.90
28773;DHT22;15925;51.222;5.678;2023-04-03T04:52:10;2.00;99.90
28773;DHT22;15925;51.222;5.678;2023-04-03T04:54:37;2.00;99.90
28773;DHT22;15925;51.222;5.678;2023-04-03T04:57:03;1.90;99.90
28773;DHT22;15925;51.222;5.678;2023-04-03T04:59:30;2.00;99.90
28773;DHT22;15925;51.222;5.678;2023-04-03T05:01:57;2.00;99.90
28773;DHT22;15925;51.222;5.678;2023-04-03T05:04:24;2.00;99.90
28773;DHT22;15925;51.222;5.678;2023-04-03T05:06:55;2.00;99.90
28773;DHT22;15925;51.222;5.678;2023-04-03T05:09:25;2.00;99.90
28773;DHT22;15925;51.222;5.678;2023-04-03T05:11:52;2.00;99.90
28773;DHT22;15925;51.222;5.678;2023-04-03T05:14:21;2.00;99.90
28773;DHT22;15925;51.222;5.678;2023-04-03T05:16:48;2.00;99.90
28773;DHT22;15925;51.222;5.678;2023-04-03T05:19:13;2.00;99.90
28773;DHT22;15925;51.222;5.678;2023-04-03T05:21:41;2.00;99.90
28773;DHT22;15925;51.222;5.678;2023-04-03T05:24:11;2.00;99.90
28773;DHT22;15925;51.222;5.678;2023-04-03T05:26:40;2.00;99.90
28773;DHT22;15925;51.222;5.678;2023-04-03T05:29:07;2.00;99.90
28773;DHT22;15925;51.222;5.678;2023-04-03T05:31:33;2.00;99.90
28773;DHT22;15925;51.222;5.678;2023-04-03T05:33:58;2.10;99.90
28773;DHT22;15925;51.222;5.678;2023-04-03T05:36:28;2.10;99.90
28773;DHT22;15925;51.222;5.678;2023-04-03T05:39:00;2.10;99.90
28773;DHT22;15925;51.222;5.678;2023-04-03T05:41:26;2.10;99.90
28773;DHT22;15925;51.222;5.678;2023-04-03T05:43:52;2.00;99.90
28773;DHT22;15925;51.222;5.678;2023-04-03T05:46:20;2.10;99.90
28773;DHT22;15925;51.222;5.678;2023-04-03T05:48:51;2.10;99.90
28773;DHT22;15925;51.222;5.678;2023-04-03T05:51:32;2.10;99.90
28773;DHT22;15925;51.222;5.678;2023-04-03T05:54:19;2.10;99.90
28773;DHT22;15925;51.222;5.678;2023-04-03T05:56:52;2.10;99.90
28773;DHT22;15925;51.222;5.678;2023-04-03T05:59:20;2.20;99.90
28773;DHT22;15925;51.222;5.678;2023-04-03T06:01:48;2.10;99.90
28773;DHT22;15925;51.222;5.678;2023-04-03T06:04:15;2.10;99.90
28773;DHT22;15925;51.222;5.678;2023-04-03T06:06:53;2.10;99.90
28773;DHT22;15925;51.222;5.678;2023-04-03T06:09:24;2.20;99.90
28773;DHT22;15925;51.222;5.678;2023-04-03T06:11:50;2.30;99.90
28773;DHT22;15925;51.222;5.678;2023-04-03T06:14:18;2.30;99.90
28773;DHT22;15925;51.222;5.678;2023-04-03T06:16:44;2.30;99.90
28773;DHT22;15925;51.222;5.678;2023-04-03T06:19:11;2.30;99.90
28773;DHT22;15925;51.222;5.678;2023-04-03T06:21:41;2.40;99.90
28773;DHT22;15925;51.222;5.678;2023-04-03T06:24:07;2.40;99.90
28773;DHT22;15925;51.222;5.678;2023-04-03T06:26:34;2.40;99.90
28773;DHT22;15925;51.222;5.678;2023-04-03T06:29:00;2.50;99.90
28773;DHT22;15925;51.222;5.678;2023-04-03T06:31:27;2.50;99.90
28773;DHT22;15925;51.222;5.678;2023-04-03T06:33:52;2.50;99.90
28773;DHT22;15925;51.222;5.678;2023-04-03T06:36:19;2.60;99.90
28773;DHT22;15925;51.222;5.678;2023-04-03T06:38:46;2.60;99.90
28773;DHT22;15925;51.222;5.678;2023-04-03T06:41:12;2.70;99.90
28773;DHT22;15925;51.222;5.678;2023-04-03T06:43:38;2.80;99.90
28773;DHT22;15925;51.222;5.678;2023-04-03T06:46:04;2.80;99.90
28773;DHT22;15925;51.222;5.678;2023-04-03T06:48:30;2.80;99.90
28773;DHT22;15925;51.222;5.678;2023-04-03T06:50:57;2.90;99.90
28773;DHT22;15925;51.222;5.678;2023-04-03T06:53:22;2.90;99.90
28773;DHT22;15925;51.222;5.678;2023-04-03T06:55:48;3.00;99.90
28773;DHT22;15925;51.222;5.678;2023-04-03T06:58:14;3.00;99.90
28773;DHT22;15925;51.222;5.678;2023-04-03T07:00:42;3.10;99.90
28773;DHT22;15925;51.222;5.678;2023-04-03T07:03:08;3.20;99.90
28773;DHT22;15925;51.222;5.678;2023-04-03T07:05:34;3.30;99.90
28773;DHT22;15925;51.222;5.678;2023-04-03T07:08:00;3.40;99.90
28773;DHT22;15925;51.222;5.678;2023-04-03T07:10:26;3.40;99.90
28773;DHT22;15925;51.222;5.678;2023-04-03T07:12:52;3.50;99.90
28773;DHT22;15925;51.222;5.678;2023-04-03T07:15:18;3.50;99.90
28773;DHT22;15925;51.222;5.678;2023-04-03T07:17:44;3.60;99.90
28773;DHT22;15925;51.222;5.678;2023-04-03T07:20:10;3.60;99.90
28773;DHT22;15925;51.222;5.678;2023-04-03T07:22:36;3.70;99.90
28773;DHT22;15925;51.222;5.678;2023-04-03T07:25:02;3.70;99.90
28773;DHT22;15925;51.222;5.678;2023-04-03T07:27:32;3.80;99.90
28773;DHT22;15925;51.222;5.678;2023-04-03T07:29:58;3.90;99.90
28773;DHT22;15925;51.222;5.678;2023-04-03T07:32:24;4.00;99.90
28773;DHT22;15925;51.222;5.678;2023-04-03T07:34:50;4.00;99.90
28773;DHT22;15925;51.222;5.678;2023-04-03T07:37:16;4.20;99.90
28773;DHT22;15925;51.222;5.678;2023-04-03T07:39:44;4.10;99.90
28773;DHT22;15925;51.222;5.678;2023-04-03T07:42:10;4.20;99.90
28773;DHT22;15925;51.222;5.678;2023-04-03T07:44:37;4.30;99.90
28773;DHT22;15925;51.222;5.678;2023-04-03T07:47:03;4.40;99.90
28773;DHT22;15925;51.222;5.678;2023-04-03T07:49:29;4.50;99.90
28773;DHT22;15925;51.222;5.678;2023-04-03T07:51:55;4.50;99.90
28773;DHT22;15925;51.222;5.678;2023-04-03T07:54:21;4.60;99.90
28773;DHT22;15925;51.222;5.678;2023-04-03T07:56:47;4.60;99.90
28773;DHT22;15925;51.222;5.678;2023-04-03T07:59:13;4.70;99.90
28773;DHT22;15925;51.222;5.678;2023-04-03T08:01:39;4.80;99.90
28773;DHT22;15925;51.222;5.678;2023-04-03T08:04:04;4.90;99.90
28773;DHT22;15925;51.222;5.678;2023-04-03T08:06:32;5.00;99.90
28773;DHT22;15925;51.222;5.678;2023-04-03T08:09:02;5.10;99.90
28773;DHT22;15925;51.222;5.678;2023-04-03T08:11:29;5.10;99.90
28773;DHT22;15925;51.222;5.678;2023-04-03T08:13:56;5.10;99.90
28773;DHT22;15925;51.222;5.678;2023-04-03T08:16:23;5.20;99.90
28773;DHT22;15925;51.222;5.678;2023-04-03T08:18:52;5.20;99.90
28773;DHT22;15925;51.222;5.678;2023-04-03T08:21:18;5.30;99.90
28773;DHT22;15925;51.222;5.678;2023-04-03T08:23:44;5.30;99.90
28773;DHT22;15925;51.222;5.678;2023-04-03T08:26:15;5.40;99.90
28773;DHT22;15925;51.222;5.678;2023-04-03T08:28:41;5.40;99.90
28773;DHT22;15925;51.222;5.678;2023-04-03T08:31:14;5.60;99.90
28773;DHT22;15925;51.222;5.678;2023-04-03T08:33:41;5.70;99.90
28773;DHT22;15925;51.222;5.678;2023-04-03T08:36:15;5.90;99.90
28773;DHT22;15925;51.222;5.678;2023-04-03T08:38:42;6.00;99.90
28773;DHT22;15925;51.222;5.678;2023-04-03T08:41:23;6.00;99.90
28773;DHT22;15925;51.222;5.678;2023-04-03T08:49:47;6.40;99.90
28773;DHT22;15925;51.222;5.678;2023-04-03T08:54:58;6.50;99.90
28773;DHT22;15925;51.222;5.678;2023-04-03T08:57:36;6.60;99.90
28773;DHT22;15925;51.222;5.678;2023-04-03T09:00:13;6.80;99.90
28773;DHT22;15925;51.222;5.678;2023-04-03T09:02:44;6.80;99.90
28773;DHT22;15925;51.222;5.678;2023-04-03T09:08:30;6.90;99.90
28773;DHT22;15925;51.222;5.678;2023-04-03T09:14:00;6.90;99.90
28773;DHT22;15925;51.222;5.678;2023-04-03T09:16:52;6.80;99.90
28773;DHT22;15925;51.222;5.678;2023-04-03T09:21:51;7.20;99.90
28773;DHT22;15925;51.222;5.678;2023-04-03T09:24:17;7.30;99.90
28773;DHT22;15925;51.222;5.678;2023-04-03T09:26:56;7.40;99.90
28773;DHT22;15925;51.222;5.678;2023-04-03T09:29:26;7.50;99.90
28773;DHT22;15925;51.222;5.678;2023-04-03T09:32:01;7.70;99.90
28773;DHT22;15925;51.222;5.678;2023-04-03T09:34:33;7.60;99.90
28773;DHT22;15925;51.222;5.678;2023-04-03T09:37:03;7.70;99.90
28773;DHT22;15925;51.222;5.678;2023-04-03T09:39:33;7.80;99.90
28773;DHT22;15925;51.222;5.678;2023-04-03T09:42:21;7.90;99.90
28773;DHT22;15925;51.222;5.678;2023-04-03T09:44:56;8.00;99.90
28773;DHT22;15925;51.222;5.678;2023-04-03T09:47:26;8.00;99.90
28773;DHT22;15925;51.222;5.678;2023-04-03T09:52:42;8.00;99.90
28773;DHT22;15925;51.222;5.678;2023-04-03T09:57:39;8.10;99.90
28773;DHT22;15925;51.222;5.678;2023-04-03T10:00:06;8.30;99.90
28773;DHT22;15925;51.222;5.678;2023-04-03T10:02:44;8.30;99.90
28773;DHT22;15925;51.222;5.678;2023-04-03T10:10:48;8.70;99.90
28773;DHT22;15925;51.222;5.678;2023-04-03T10:13:16;8.90;99.90
28773;DHT22;15925;51.222;5.678;2023-04-03T10:15:46;9.00;99.90
28773;DHT22;15925;51.222;5.678;2023-04-03T10:20:59;9.10;99.90
28773;DHT22;15925;51.222;5.678;2023-04-03T10:23:51;8.80;99.90
28773;DHT22;15925;51.222;5.678;2023-04-03T10:26:44;8.70;99.90
28773;DHT22;15925;51.222;5.678;2023-04-03T10:40:19;8.80;99.90
28773;DHT22;15925;51.222;5.678;2023-04-03T10:42:52;8.90;99.90
28773;DHT22;15925;51.222;5.678;2023-04-03T10:48:31;9.00;99.90
28773;DHT22;15925;51.222;5.678;2023-04-03T10:54:08;9.20;99.90
28773;DHT22;15925;51.222;5.678;2023-04-03T10:56:42;9.30;99.90
28773;DHT22;15925;51.222;5.678;2023-04-03T11:01:56;9.70;99.90
28773;DHT22;15925;51.222;5.678;2023-04-03T11:04:24;9.80;99.90
28773;DHT22;15925;51.222;5.678;2023-04-03T11:07:01;9.90;99.90
28773;DHT22;15925;51.222;5.678;2023-04-03T11:09:35;10.00;99.90
28773;DHT22;15925;51.222;5.678;2023-04-03T11:12:26;10.10;99.90
28773;DHT22;15925;51.222;5.678;2023-04-03T11:14:55;10.20;99.90
28773;DHT22;15925;51.222;5.678;2023-04-03T11:20:03;10.20;99.90
28773;DHT22;15925;51.222;5.678;2023-04-03T11:22:35;10.30;99.90
28773;DHT22;15925;51.222;5.678;2023-04-03T11:27:44;10.40;99.90
28773;DHT22;15925;51.222;5.678;2023-04-03T11:39:22;10.60;99.90
28773;DHT22;15925;51.222;5.678;2023-04-03T11:41:49;10.70;99.90
28773;DHT22;15925;51.222;5.678;2023-04-03T11:44:28;10.80;99.90
28773;DHT22;15925;51.222;5.678;2023-04-03T11:46:57;10.80;99.90
28773;DHT22;15925;51.222;5.678;2023-04-03T11:49:58;10.70;99.90
28773;DHT22;15925;51.222;5.678;2023-04-03T11:52:55;10.60;99.90
28773;DHT22;15925;51.222;5.678;2023-04-03T12:05:48;11.10;99.90
28773;DHT22;15925;51.222;5.678;2023-04-03T12:16:46;11.00;99.90
28773;DHT22;15925;51.222;5.678;2023-04-03T12:24:38;10.80;99.90
28773;DHT22;15925;51.222;5.678;2023-04-03T12:48:28;11.10;99.90
28773;DHT22;15925;51.222;5.678;2023-04-03T12:50:55;11.20;99.90
28773;DHT22;15925;51.222;5.678;2023-04-03T12:53:41;11.10;99.90
28773;DHT22;15925;51.222;5.678;2023-04-03T12:56:28;11.30;99.90
28773;DHT22;15925;51.222;5.678;2023-04-03T12:58:57;11.10;99.90
28773;DHT22;15925;51.222;5.678;2023-04-03T13:01:38;10.90;99.90
28773;DHT22;15925;51.222;5.678;2023-04-03T13:04:04;11.30;99.90
28773;DHT22;15925;51.222;5.678;2023-04-03T13:06:43;11.30;99.90
28773;DHT22;15925;51.222;5.678;2023-04-03T13:09:24;11.40;99.90
28773;DHT22;15925;51.222;5.678;2023-04-03T13:11:59;11.40;99.90
28773;DHT22;15925;51.222;5.678;2023-04-03T13:14:27;11.50;99.90
28773;DHT22;15925;51.222;5.678;2023-04-03T13:17:14;11.50;99.90
28773;DHT22;15925;51.222;5.678;2023-04-03T13:19:40;11.60;99.90
28773;DHT22;15925;51.222;5.678;2023-04-03T13:22:18;11.70;99.90
28773;DHT22;15925;51.222;5.678;2023-04-03T13:24:49;11.70;99.90
28773;DHT22;15925;51.222;5.678;2023-04-03T13:27:16;11.70;99.90
28773;DHT22;15925;51.222;5.678;2023-04-03T13:29:42;11.70;99.90
28773;DHT22;15925;51.222;5.678;2023-04-03T13:32:23;11.80;99.00
28773;DHT22;15925;51.222;5.678;2023-04-03T13:34:50;11.70;99.90
28773;DHT22;15925;51.222;5.678;2023-04-03T13:37:24;11.80;99.90
28773;DHT22;15925;51.222;5.678;2023-04-03T13:40:04;11.70;99.90
28773;DHT22;15925;51.222;5.678;2023-04-03T13:42:38;11.70;99.90
28773;DHT22;15925;51.222;5.678;2023-04-03T13:47:43;12.10;99.90
28773;DHT22;15925;51.222;5.678;2023-04-03T13:50:21;11.80;99.90
28773;DHT22;15925;51.222;5.678;2023-04-03T13:53:23;11.70;99.90
28773;DHT22;15925;51.222;5.678;2023-04-03T13:58:30;11.80;99.90
28773;DHT22;15925;51.222;5.678;2023-04-03T14:01:10;11.90;99.90
28773;DHT22;15925;51.222;5.678;2023-04-03T14:03:43;12.10;99.90
28773;DHT22;15925;51.222;5.678;2023-04-03T14:06:15;11.90;99.90
28773;DHT22;15925;51.222;5.678;2023-04-03T14:08:42;12.00;99.90
28773;DHT22;15925;51.222;5.678;2023-04-03T14:11:21;12.10;99.90
28773;DHT22;15925;51.222;5.678;2023-04-03T14:13:50;12.10;99.90
28773;DHT22;15925;51.222;5.678;2023-04-03T14:16:20;12.20;99.90
28773;DHT22;15925;51.222;5.678;2023-04-03T14:18:48;12.30;99.90
28773;DHT22;15925;51.222;5.678;2023-04-03T14:21:16;12.30;99.90
28773;DHT22;15925;51.222;5.678;2023-04-03T14:23:42;12.30;99.90
28773;DHT22;15925;51.222;5.678;2023-04-03T14:26:16;11.90;99.90
28773;DHT22;15925;51.222;5.678;2023-04-03T14:28:47;12.10;99.90
28773;DHT22;15925;51.222;5.678;2023-04-03T14:31:15;11.90;99.90
28773;DHT22;15925;51.222;5.678;2023-04-03T14:33:42;11.80;99.90
28773;DHT22;15925;51.222;5.678;2023-04-03T14:36:19;11.80;99.90
28773;DHT22;15925;51.222;5.678;2023-04-03T14:38:46;12.00;99.90
28773;DHT22;15925;51.222;5.678;2023-04-03T14:41:13;12.10;99.90
28773;DHT22;15925;51.222;5.678;2023-04-03T14:43:40;12.20;99.90
28773;DHT22;15925;51.222;5.678;2023-04-03T14:46:16;12.20;99.90
28773;DHT22;15925;51.222;5.678;2023-04-03T14:48:42;12.10;99.90
28773;DHT22;15925;51.222;5.678;2023-04-03T14:51:11;12.20;99.90
28773;DHT22;15925;51.222;5.678;2023-04-03T14:53:38;12.10;99.90
28773;DHT22;15925;51.222;5.678;2023-04-03T14:56:12;12.20;99.90
28773;DHT22;15925;51.222;5.678;2023-04-03T14:58:38;12.20;99.90
28773;DHT22;15925;51.222;5.678;2023-04-03T15:01:04;12.20;99.90
28773;DHT22;15925;51.222;5.678;2023-04-03T15:03:30;12.20;99.70
28773;DHT22;15925;51.222;5.678;2023-04-03T15:05:56;12.40;99.90
28773;DHT22;15925;51.222;5.678;2023-04-03T15:08:25;12.30;99.80
28773;DHT22;15925;51.222;5.678;2023-04-03T15:10:52;12.40;99.90
28773;DHT22;15925;51.222;5.678;2023-04-03T15:13:18;12.30;99.60
28773;DHT22;15925;51.222;5.678;2023-04-03T15:15:44;12.10;96.10
28773;DHT22;15925;51.222;5.678;2023-04-03T15:18:15;12.00;99.20
28773;DHT22;15925;51.222;5.678;2023-04-03T15:20:42;12.00;99.50
28773;DHT22;15925;51.222;5.678;2023-04-03T15:23:10;11.50;98.60
28773;DHT22;15925;51.222;5.678;2023-04-03T15:25:36;11.70;99.60
28773;DHT22;15925;51.222;5.678;2023-04-03T15:28:02;11.60;99.40
28773;DHT22;15925;51.222;5.678;2023-04-03T15:30:28;11.70;99.50
28773;DHT22;15925;51.222;5.678;2023-04-03T15:32:53;11.70;99.30
28773;DHT22;15925;51.222;5.678;2023-04-03T15:35:19;11.80;99.50
28773;DHT22;15925;51.222;5.678;2023-04-03T15:37:45;11.80;99.50
28773;DHT22;15925;51.222;5.678;2023-04-03T15:40:11;11.60;98.90
28773;DHT22;15925;51.222;5.678;2023-04-03T15:42:37;11.70;99.10
28773;DHT22;15925;51.222;5.678;2023-04-03T15:45:03;11.80;99.40
28773;DHT22;15925;51.222;5.678;2023-04-03T15:47:29;11.90;99.50
28773;DHT22;15925;51.222;5.678;2023-04-03T15:49:55;11.90;99.40
28773;DHT22;15925;51.222;5.678;2023-04-03T15:52:22;11.60;98.60
28773;DHT22;15925;51.222;5.678;2023-04-03T15:54:47;11.70;99.10
28773;DHT22;15925;51.222;5.678;2023-04-03T15:57:13;11.60;98.80
28773;DHT22;15925;51.222;5.678;2023-04-03T15:59:39;11.30;98.10
28773;DHT22;15925;51.222;5.678;2023-04-03T16:02:08;11.40;98.70
28773;DHT22;15925;51.222;5.678;2023-04-03T16:04:35;11.50;98.90
28773;DHT22;15925;51.222;5.678;2023-04-03T16:07:02;11.50;98.70
28773;DHT22;15925;51.222;5.678;2023-04-03T16:09:29;11.60;98.80
28773;DHT22;15925;51.222;5.678;2023-04-03T16:11:55;11.70;98.80
28773;DHT22;15925;51.222;5.678;2023-04-03T16:14:21;11.70;95.90
28773;DHT22;15925;51.222;5.678;2023-04-03T16:16:47;11.70;98.50
28773;DHT22;15925;51.222;5.678;2023-04-03T16:19:13;11.70;98.50
28773;DHT22;15925;51.222;5.678;2023-04-03T16:21:39;11.80;98.60
28773;DHT22;15925;51.222;5.678;2023-04-03T16:24:05;11.60;98.30
28773;DHT22;15925;51.222;5.678;2023-04-03T16:26:31;11.60;98.20
28773;DHT22;15925;51.222;5.678;2023-04-03T16:28:57;11.50;98.10
28773;DHT22;15925;51.222;5.678;2023-04-03T16:31:25;11.40;98.10
28773;DHT22;15925;51.222;5.678;2023-04-03T16:33:51;11.50;98.20
28773;DHT22;15925;51.222;5.678;2023-04-03T16:36:17;11.50;98.40
28773;DHT22;15925;51.222;5.678;2023-04-03T16:38:43;11.50;98.30
28773;DHT22;15925;51.222;5.678;2023-04-03T16:41:09;11.50;98.40
28773;DHT22;15925;51.222;5.678;2023-04-03T16:43:35;11.50;98.30
28773;DHT22;15925;51.222;5.678;2023-04-03T16:46:02;11.60;98.30
28773;DHT22;15925;51.222;5.678;2023-04-03T16:48:29;11.60;98.20
28773;DHT22;15925;51.222;5.678;2023-04-03T16:50:55;11.50;98.00
28773;DHT22;15925;51.222;5.678;2023-04-03T16:53:22;11.30;94.10
28773;DHT22;15925;51.222;5.678;2023-04-03T16:55:48;11.40;97.90
28773;DHT22;15925;51.222;5.678;2023-04-03T16:58:14;11.40;98.10
28773;DHT22;15925;51.222;5.678;2023-04-03T17:00:40;11.40;98.20
28773;DHT22;15925;51.222;5.678;2023-04-03T17:03:06;11.40;98.20
28773;DHT22;15925;51.222;5.678;2023-04-03T17:05:32;11.40;98.30
28773;DHT22;15925;51.222;5.678;2023-04-03T17:07:58;11.50;98.40
28773;DHT22;15925;51.222;5.678;2023-04-03T17:10:25;11.50;98.30
28773;DHT22;15925;51.222;5.678;2023-04-03T17:12:50;11.60;98.50
28773;DHT22;15925;51.222;5.678;2023-04-03T17:15:16;11.90;96.40
28773;DHT22;15925;51.222;5.678;2023-04-03T17:17:42;13.50;98.00
28773;DHT22;15925;51.222;5.678;2023-04-03T17:20:09;13.70;97.30
28773;DHT22;15925;51.222;5.678;2023-04-03T17:22:35;13.50;97.20
28773;DHT22;15925;51.222;5.678;2023-04-03T17:25:02;13.30;97.10
28773;DHT22;15925;51.222;5.678;2023-04-03T17:27:28;13.30;97.10
28773;DHT22;15925;51.222;5.678;2023-04-03T17:29:54;13.40;97.00
28773;DHT22;15925;51.222;5.678;2023-04-03T17:32:20;13.10;96.60
28773;DHT22;15925;51.222;5.678;2023-04-03T17:34:46;13.10;96.90
28773;DHT22;15925;51.222;5.678;2023-04-03T17:37:12;12.80;97.00
28773;DHT22;15925;51.222;5.678;2023-04-03T17:39:38;12.20;96.70
28773;DHT22;15925;51.222;5.678;2023-04-03T17:42:04;11.90;97.00
28773;DHT22;15925;51.222;5.678;2023-04-03T17:44:30;11.60;97.40
28773;DHT22;15925;51.222;5.678;2023-04-03T17:46:56;11.40;97.60
28773;DHT22;15925;51.222;5.678;2023-04-03T17:49:21;11.10;97.60
28773;DHT22;15925;51.222;5.678;2023-04-03T17:51:47;10.60;97.60
28773;DHT22;15925;51.222;5.678;2023-04-03T17:54:13;10.60;98.10